createdAt,value
2018-07-24T00:00:18.669Z,23.50
2018-07-24T00:02:48.916Z,23.40
2018-07-24T00:05:18.218Z,23.50
2018-07-24T00:07:47.862Z,23.50
2018-07-24T00:10:17.322Z,23.30
2018-07-24T00:12:46.659Z,23.20
2018-07-24T00:15:15.987Z,23.10
2018-07-24T00:17:45.715Z,23.10
2018-07-24T00:20:15.676Z,23.00
2018-07-24T00:22:44.925Z,22.90
2018-07-24T00:25:14.185Z,22.90
2018-07-24T00:27:44.093Z,22.80
2018-07-24T00:30:13.611Z,22.90
2018-07-24T00:32:42.965Z,22.80
2018-07-24T00:35:12.361Z,22.80
2018-07-24T00:37:41.783Z,22.80
2018-07-24T00:40:12.008Z,22.80
2018-07-24T00:42:41.355Z,22.90
2018-07-24T00:45:10.895Z,22.80
2018-07-24T00:47:40.986Z,22.70
2018-07-24T00:50:10.507Z,22.80
2018-07-24T00:52:39.775Z,22.70
2018-07-24T00:55:09.440Z,22.70
2018-07-24T00:57:38.731Z,22.70
2018-07-24T01:00:08.246Z,22.60
2018-07-24T01:02:38.237Z,22.60
2018-07-24T01:05:07.801Z,22.50
2018-07-24T01:07:39.117Z,22.40
2018-07-24T01:10:10.125Z,22.40
2018-07-24T01:12:39.697Z,22.40
2018-07-24T01:15:09.317Z,22.40
2018-07-24T01:17:38.620Z,22.30
2018-07-24T01:20:08.106Z,22.20
2018-07-24T01:22:37.326Z,22.30
2018-07-24T01:25:07.179Z,22.20
2018-07-24T01:27:36.979Z,22.20
2018-07-24T01:30:06.341Z,22.20
2018-07-24T01:32:35.718Z,22.20
2018-07-24T01:35:05.236Z,22.20
2018-07-24T01:37:34.484Z,22.10
2018-07-24T01:40:03.817Z,22.10
2018-07-24T01:42:33.264Z,22.10
2018-07-24T01:45:02.668Z,22.10
2018-07-24T01:47:31.940Z,22.00
2018-07-24T01:50:01.419Z,22.00
2018-07-24T01:52:31.006Z,22.00
2018-07-24T01:55:00.465Z,22.00
2018-07-24T01:57:29.926Z,21.90
2018-07-24T01:59:59.228Z,21.90
2018-07-24T02:02:28.794Z,21.90
2018-07-24T02:04:58.270Z,21.80
2018-07-24T02:07:28.146Z,21.70
2018-07-24T02:09:57.872Z,21.70
2018-07-24T02:12:27.973Z,21.70
2018-07-24T02:14:57.292Z,21.60
2018-07-24T02:17:26.666Z,21.60
2018-07-24T02:19:56.391Z,21.60
2018-07-24T02:22:26.033Z,21.50
2018-07-24T02:24:55.651Z,21.50
2018-07-24T02:27:24.985Z,21.50
2018-07-24T02:29:54.589Z,21.40
2018-07-24T02:32:23.880Z,21.50
2018-07-24T02:34:53.988Z,21.40
2018-07-24T02:37:23.489Z,21.40
2018-07-24T02:39:52.847Z,21.30
2018-07-24T02:42:22.139Z,21.30
2018-07-24T02:44:51.351Z,21.20
2018-07-24T02:47:20.747Z,21.20
2018-07-24T02:49:49.871Z,21.20
2018-07-24T02:52:18.944Z,21.10
2018-07-24T02:54:48.039Z,21.00
2018-07-24T02:57:17.295Z,21.00
2018-07-24T02:59:46.555Z,21.00
2018-07-24T03:02:15.791Z,21.00
2018-07-24T03:04:44.878Z,21.00
2018-07-24T03:07:13.917Z,20.90
2018-07-24T03:09:43.111Z,20.90
2018-07-24T03:12:12.355Z,20.90
2018-07-24T03:14:41.477Z,20.90
2018-07-24T03:17:10.788Z,20.70
2018-07-24T03:19:39.873Z,20.80
2018-07-24T03:22:09.031Z,20.80
2018-07-24T03:24:38.550Z,20.80
2018-07-24T03:27:08.251Z,20.80
2018-07-24T03:29:37.305Z,20.80
2018-07-24T03:32:06.689Z,20.80
2018-07-24T03:34:36.505Z,20.80
2018-07-24T03:37:06.324Z,20.80
2018-07-24T03:39:35.963Z,20.70
2018-07-24T03:42:06.219Z,20.70
2018-07-24T03:44:36.089Z,20.70
2018-07-24T03:47:06.027Z,20.60
2018-07-24T03:49:36.265Z,20.60
2018-07-24T03:52:06.565Z,20.50
2018-07-24T03:54:36.561Z,20.60
2018-07-24T03:57:06.643Z,20.50
2018-07-24T03:59:36.621Z,20.50
2018-07-24T04:02:06.664Z,20.50
2018-07-24T04:04:36.505Z,20.50
2018-07-24T04:07:06.381Z,20.50
2018-07-24T04:09:36.673Z,20.50
2018-07-24T04:12:07.157Z,20.60
2018-07-24T04:14:36.809Z,20.50
2018-07-24T04:17:06.753Z,20.50
2018-07-24T04:19:36.716Z,20.50
2018-07-24T04:22:06.743Z,20.50
2018-07-24T04:24:36.697Z,20.60
2018-07-24T04:27:07.219Z,20.50
2018-07-24T04:29:36.747Z,20.50
2018-07-24T04:32:06.699Z,20.60
2018-07-24T04:34:37.315Z,20.60
2018-07-24T04:37:07.242Z,20.70
2018-07-24T04:39:37.163Z,20.70
2018-07-24T04:42:07.528Z,20.70
2018-07-24T04:44:37.544Z,20.80
2018-07-24T04:47:07.742Z,21.00
2018-07-24T04:49:38.316Z,21.00
2018-07-24T04:52:08.664Z,21.00
2018-07-24T04:54:39.395Z,21.10
2018-07-24T04:57:09.569Z,21.10
2018-07-24T04:59:39.798Z,21.30
2018-07-24T05:02:10.681Z,21.40
2018-07-24T05:04:40.540Z,21.60
2018-07-24T05:07:10.808Z,21.70
2018-07-24T05:09:41.043Z,21.60
2018-07-24T05:12:11.727Z,21.70
2018-07-24T05:14:42.205Z,21.70
2018-07-24T05:17:12.236Z,21.60
2018-07-24T05:19:42.254Z,21.70
2018-07-24T05:22:12.091Z,21.80
2018-07-24T05:24:42.365Z,22.00
2018-07-24T05:27:12.988Z,22.10
2018-07-24T05:29:43.179Z,22.20
2018-07-24T05:32:12.988Z,22.40
2018-07-24T05:34:43.509Z,22.60
2018-07-24T05:37:13.893Z,22.80
2018-07-24T05:39:44.081Z,23.00
2018-07-24T05:42:14.251Z,23.00
2018-07-24T05:44:44.328Z,23.20
2018-07-24T05:47:14.257Z,23.30
2018-07-24T05:49:44.534Z,23.50
2018-07-24T05:52:14.527Z,23.50
2018-07-24T05:54:45.003Z,23.90
2018-07-24T05:57:15.263Z,23.90
2018-07-24T05:59:45.203Z,24.40
2018-07-24T06:02:15.658Z,24.40
2018-07-24T06:04:45.445Z,24.80
2018-07-24T06:07:15.269Z,25.00
2018-07-24T06:09:45.271Z,24.90
2018-07-24T06:12:14.960Z,24.80
2018-07-24T06:14:45.400Z,25.00
2018-07-24T06:17:15.691Z,24.90
2018-07-24T06:19:46.005Z,25.00
2018-07-24T06:22:15.783Z,24.90
2018-07-24T06:24:46.837Z,25.00
2018-07-24T06:27:17.201Z,25.00
2018-07-24T06:29:48.092Z,25.20
2018-07-24T06:32:18.215Z,25.30
2018-07-24T06:34:47.818Z,25.40
2018-07-24T06:37:18.204Z,25.40
2018-07-24T06:39:48.858Z,25.80
2018-07-24T06:42:19.386Z,26.00
2018-07-24T06:44:49.737Z,26.50
2018-07-24T06:47:19.937Z,26.70
2018-07-24T06:49:49.626Z,26.60
2018-07-24T06:52:19.359Z,27.30
2018-07-24T06:54:50.029Z,27.20
2018-07-24T06:57:19.779Z,27.60
2018-07-24T06:59:49.370Z,27.90
2018-07-24T07:02:19.775Z,27.70
2018-07-24T07:04:49.688Z,27.20
2018-07-24T07:07:20.091Z,27.40
2018-07-24T07:09:49.877Z,28.10
2018-07-24T07:12:19.825Z,28.40
2018-07-24T07:14:49.559Z,28.30
2018-07-24T07:17:19.363Z,28.60
2018-07-24T07:19:49.605Z,28.80
2018-07-24T07:22:19.713Z,28.80
2018-07-24T07:24:49.513Z,29.20
2018-07-24T07:27:19.512Z,29.30
2018-07-24T07:29:49.437Z,29.50
2018-07-24T07:32:19.472Z,29.40
2018-07-24T07:34:49.343Z,29.50
2018-07-24T07:37:19.203Z,29.90
2018-07-24T07:39:49.261Z,29.10
2018-07-24T07:42:20.256Z,29.20
2018-07-24T07:44:49.812Z,29.40
2018-07-24T07:47:19.659Z,29.20
2018-07-24T07:49:49.408Z,29.00
2018-07-24T07:52:19.647Z,29.20
2018-07-24T07:54:49.864Z,29.30
2018-07-24T07:57:20.019Z,29.70
2018-07-24T07:59:49.647Z,29.80
2018-07-24T08:02:19.529Z,30.20
2018-07-24T08:04:49.435Z,30.30
2018-07-24T08:07:19.311Z,30.60
2018-07-24T08:09:49.197Z,30.60
2018-07-24T08:12:19.480Z,30.60
2018-07-24T08:14:49.701Z,30.80
2018-07-24T08:17:19.421Z,31.00
2018-07-24T08:19:49.511Z,31.30
2018-07-24T08:22:19.443Z,31.40
2018-07-24T08:24:49.406Z,32.10
2018-07-24T08:27:19.239Z,31.70
2018-07-24T08:29:49.348Z,32.30
2018-07-24T08:32:19.608Z,32.40
2018-07-24T08:34:49.734Z,32.40
2018-07-24T08:37:19.770Z,32.30
2018-07-24T08:39:49.776Z,32.00
2018-07-24T08:42:19.636Z,31.70
2018-07-24T08:44:49.934Z,31.80
2018-07-24T08:47:20.668Z,32.30
2018-07-24T08:49:50.658Z,32.30
2018-07-24T08:52:20.616Z,32.10
2018-07-24T08:54:51.042Z,32.30
2018-07-24T08:57:21.316Z,32.50
2018-07-24T08:59:51.790Z,32.50
2018-07-24T09:02:21.852Z,32.50
2018-07-24T09:04:51.894Z,32.50
2018-07-24T09:07:21.787Z,32.70
2018-07-24T09:09:51.814Z,32.50
2018-07-24T09:12:21.846Z,32.40
2018-07-24T09:14:52.152Z,32.70
2018-07-24T09:17:22.234Z,32.40
2018-07-24T09:19:52.598Z,31.90
2018-07-24T09:22:23.034Z,32.10
2018-07-24T09:24:52.955Z,32.40
2018-07-24T09:27:22.806Z,32.40
2018-07-24T09:29:52.664Z,32.60
2018-07-24T09:32:22.454Z,32.50
2018-07-24T09:34:52.206Z,32.00
2018-07-24T09:37:23.001Z,31.80
2018-07-24T09:39:52.818Z,32.00
2018-07-24T09:42:22.570Z,31.70
2018-07-24T09:44:52.806Z,32.00
2018-07-24T09:47:22.972Z,32.00
2018-07-24T09:49:52.677Z,32.00
2018-07-24T09:52:22.123Z,32.50
2018-07-24T09:54:51.855Z,32.10
2018-07-24T09:57:21.909Z,32.40
2018-07-24T09:59:52.031Z,32.50
2018-07-24T10:02:22.262Z,32.70
2018-07-24T10:04:52.381Z,32.30
2018-07-24T10:07:22.350Z,32.40
2018-07-24T10:09:52.498Z,32.80
2018-07-24T10:12:22.034Z,32.80
2018-07-24T10:14:52.058Z,33.00
2018-07-24T10:17:22.569Z,33.20
2018-07-24T10:19:52.458Z,33.40
2018-07-24T10:22:22.614Z,33.10
2018-07-24T10:24:52.195Z,33.30
2018-07-24T10:27:22.394Z,33.10
2018-07-24T10:29:52.091Z,33.00
2018-07-24T10:32:22.347Z,32.80
2018-07-24T10:34:52.160Z,33.00
2018-07-24T10:37:22.334Z,32.70
2018-07-24T10:39:52.060Z,33.10
2018-07-24T10:42:21.910Z,33.30
2018-07-24T10:44:51.784Z,33.40
2018-07-24T10:47:21.635Z,33.70
2018-07-24T10:49:51.802Z,33.30
2018-07-24T10:52:22.577Z,33.40
2018-07-24T10:54:52.028Z,33.60
2018-07-24T10:57:21.895Z,33.70
2018-07-24T10:59:51.737Z,33.80
2018-07-24T11:02:21.800Z,33.80
2018-07-24T11:04:52.076Z,33.60
2018-07-24T11:07:22.633Z,33.50
2018-07-24T11:09:52.568Z,33.60
2018-07-24T11:12:21.977Z,33.80
2018-07-24T11:14:51.934Z,33.90
2018-07-24T11:17:21.824Z,34.00
2018-07-24T11:19:51.967Z,33.70
2018-07-24T11:22:21.938Z,33.70
2018-07-24T11:24:51.920Z,33.70
2018-07-24T11:27:21.790Z,33.90
2018-07-24T11:29:51.757Z,33.80
2018-07-24T11:32:21.936Z,34.00
2018-07-24T11:34:51.913Z,34.00
2018-07-24T11:37:21.984Z,34.00
2018-07-24T11:39:51.930Z,34.00
2018-07-24T11:42:22.054Z,34.00
2018-07-24T11:44:51.793Z,33.50
2018-07-24T11:47:21.806Z,34.00
2018-07-24T11:49:51.774Z,34.20
2018-07-24T11:52:21.664Z,34.30
2018-07-24T11:54:51.774Z,34.40
2018-07-24T11:57:21.789Z,34.50
2018-07-24T11:59:51.834Z,34.60
2018-07-24T12:02:22.360Z,34.70
2018-07-24T12:04:51.933Z,34.80
2018-07-24T12:07:22.292Z,34.80
2018-07-24T12:09:52.200Z,34.80
2018-07-24T12:12:22.204Z,34.60
2018-07-24T12:14:52.324Z,34.50
2018-07-24T12:17:22.035Z,34.40
2018-07-24T12:19:52.146Z,34.60
2018-07-24T12:22:22.176Z,34.60
2018-07-24T12:24:52.196Z,34.80
2018-07-24T12:27:22.663Z,34.90
2018-07-24T12:29:52.508Z,35.00
2018-07-24T12:32:22.290Z,34.90
2018-07-24T12:34:52.393Z,34.80
2018-07-24T12:37:21.955Z,34.90
2018-07-24T12:39:51.831Z,34.90
2018-07-24T12:42:21.919Z,35.00
2018-07-24T12:44:52.302Z,35.20
2018-07-24T12:47:22.115Z,35.40
2018-07-24T12:49:52.350Z,35.60
2018-07-24T12:52:23.538Z,35.80
2018-07-24T12:54:53.978Z,35.80
2018-07-24T12:57:24.393Z,35.70
2018-07-24T12:59:54.488Z,35.60
2018-07-24T13:02:24.553Z,35.60
2018-07-24T13:04:54.615Z,35.50
2018-07-24T13:07:24.656Z,35.60
2018-07-24T13:09:54.815Z,35.50
2018-07-24T13:12:24.901Z,35.50
2018-07-24T13:15:00.073Z,35.70
2018-07-24T13:17:30.134Z,35.70
2018-07-24T13:20:00.605Z,35.80
2018-07-24T13:22:30.285Z,36.00
2018-07-24T13:24:59.596Z,35.90
2018-07-24T13:27:29.437Z,35.90
2018-07-24T13:29:59.357Z,35.80
2018-07-24T13:32:29.274Z,35.80
2018-07-24T13:34:59.479Z,35.90
2018-07-24T13:37:29.682Z,35.90
2018-07-24T13:39:59.936Z,35.80
2018-07-24T13:42:29.836Z,35.90
2018-07-24T13:44:59.927Z,35.90
2018-07-24T13:47:30.789Z,35.90
2018-07-24T13:50:00.871Z,35.50
2018-07-24T13:52:30.816Z,35.40
2018-07-24T13:55:00.634Z,35.10
2018-07-24T13:57:30.536Z,35.20
2018-07-24T14:00:00.650Z,35.30
2018-07-24T14:02:30.188Z,35.30
2018-07-24T14:05:00.072Z,35.20
2018-07-24T14:07:30.279Z,35.40
2018-07-24T14:10:00.171Z,35.50
2018-07-24T14:12:30.921Z,35.40
2018-07-24T14:15:01.782Z,35.40
2018-07-24T14:17:32.097Z,35.40
2018-07-24T14:20:02.309Z,35.50
2018-07-24T14:22:33.993Z,35.50
2018-07-24T14:25:04.515Z,35.70
2018-07-24T14:27:34.574Z,35.60
2018-07-24T14:30:07.815Z,35.80
2018-07-24T14:32:37.976Z,35.80
2018-07-24T14:35:07.911Z,35.90
2018-07-24T14:37:38.249Z,36.00
2018-07-24T14:40:08.689Z,36.00
2018-07-24T14:42:39.430Z,36.00
2018-07-24T14:45:12.274Z,36.10
2018-07-24T14:47:43.281Z,35.70
2018-07-24T14:50:14.781Z,35.80
2018-07-24T14:52:45.955Z,36.00
2018-07-24T14:55:16.469Z,36.00
2018-07-24T14:57:47.543Z,36.10
2018-07-24T15:00:18.491Z,36.20
2018-07-24T15:02:49.793Z,36.20
2018-07-24T15:05:20.972Z,36.20
2018-07-24T15:07:51.333Z,36.30
2018-07-24T15:10:22.285Z,36.40
2018-07-24T15:12:53.325Z,36.40
2018-07-24T15:15:23.617Z,36.50
2018-07-24T15:17:53.620Z,36.50
2018-07-24T15:20:24.616Z,36.50
2018-07-24T15:22:55.988Z,36.20
2018-07-24T15:25:26.566Z,36.00
2018-07-24T15:27:57.073Z,35.90
2018-07-24T15:30:27.149Z,36.00
2018-07-24T15:32:58.496Z,35.80
2018-07-24T15:35:28.810Z,35.70
2018-07-24T15:37:59.621Z,35.50
2018-07-24T15:40:29.893Z,35.60
2018-07-24T15:43:00.766Z,35.70
2018-07-24T15:45:31.516Z,35.80
2018-07-24T15:48:02.459Z,36.00
2018-07-24T15:50:33.350Z,36.10
2018-07-24T15:53:04.138Z,36.00
2018-07-24T15:55:34.268Z,36.10
2018-07-24T15:58:04.519Z,36.30
2018-07-24T16:00:35.885Z,36.40
2018-07-24T16:03:07.115Z,36.50
2018-07-24T16:05:37.343Z,36.20
2018-07-24T16:08:07.568Z,36.40
2018-07-24T16:10:37.532Z,36.60
2018-07-24T16:13:07.494Z,36.50
2018-07-24T16:15:38.449Z,36.40
2018-07-24T16:18:08.446Z,35.90
2018-07-24T16:20:38.446Z,35.80
2018-07-24T16:23:08.494Z,35.60
2018-07-24T16:25:38.659Z,35.40
2018-07-24T16:28:09.517Z,35.20
2018-07-24T16:30:39.814Z,35.20
2018-07-24T16:33:10.759Z,35.20
2018-07-24T16:35:41.130Z,35.20
2018-07-24T16:38:10.969Z,35.10
2018-07-24T16:40:40.975Z,35.00
2018-07-24T16:43:12.367Z,34.90
2018-07-24T16:45:43.067Z,34.90
2018-07-24T16:48:13.388Z,34.80
2018-07-24T16:50:43.308Z,34.90
2018-07-24T16:53:13.673Z,34.90
2018-07-24T16:55:44.752Z,34.80
2018-07-24T16:58:15.328Z,34.80
2018-07-24T17:00:47.542Z,34.90
2018-07-24T17:03:18.594Z,34.90
2018-07-24T17:05:48.341Z,35.10
2018-07-24T17:08:18.471Z,35.10
2018-07-24T17:10:49.779Z,35.40
2018-07-24T17:13:21.466Z,35.40
2018-07-24T17:15:52.184Z,35.30
2018-07-24T17:18:22.907Z,35.20
2018-07-24T17:20:53.822Z,35.20
2018-07-24T17:23:25.112Z,35.10
2018-07-24T17:25:56.719Z,35.20
2018-07-24T17:28:27.390Z,35.00
2018-07-24T17:30:57.604Z,34.70
2018-07-24T17:33:29.644Z,34.80
2018-07-24T17:36:00.216Z,34.90
2018-07-24T17:38:30.896Z,34.80
2018-07-24T17:41:01.464Z,34.90
2018-07-24T17:43:32.424Z,34.90
2018-07-24T17:46:02.930Z,34.90
2018-07-24T17:48:33.736Z,34.80
2018-07-24T17:51:04.664Z,34.70
2018-07-24T17:53:35.313Z,34.50
2018-07-24T17:56:06.186Z,34.50
2018-07-24T17:58:36.758Z,34.40
2018-07-24T18:01:07.201Z,34.50
2018-07-24T18:03:39.056Z,34.50
2018-07-24T18:06:09.832Z,34.60
2018-07-24T18:08:41.660Z,34.60
2018-07-24T18:11:12.647Z,34.60
2018-07-24T18:13:42.765Z,34.50
2018-07-24T18:16:13.526Z,34.40
2018-07-24T18:18:43.975Z,34.30
2018-07-24T18:21:14.542Z,34.30
2018-07-24T18:23:45.835Z,34.20
2018-07-24T18:26:16.062Z,34.20
2018-07-24T18:28:46.539Z,34.20
2018-07-24T18:31:17.222Z,34.20
2018-07-24T18:33:47.471Z,34.20
2018-07-24T18:36:17.589Z,34.20
2018-07-24T18:38:50.076Z,34.10
2018-07-24T18:41:19.872Z,34.10
2018-07-24T18:43:50.555Z,34.00
2018-07-24T18:46:21.076Z,34.00
2018-07-24T18:48:51.066Z,34.00
2018-07-24T18:51:21.482Z,33.90
2018-07-24T18:53:51.873Z,33.80
2018-07-24T18:56:22.068Z,33.80
2018-07-24T18:58:52.889Z,33.70
2018-07-24T19:01:22.539Z,33.70
2018-07-24T19:03:54.134Z,33.70
2018-07-24T19:06:24.167Z,33.70
2018-07-24T19:08:54.399Z,33.50
2018-07-24T19:11:24.379Z,33.50
2018-07-24T19:13:54.228Z,33.40
2018-07-24T19:16:24.301Z,33.30
2018-07-24T19:18:54.324Z,33.20
2018-07-24T19:21:24.160Z,33.20
2018-07-24T19:23:54.079Z,33.10
2018-07-24T19:26:23.994Z,33.00
2018-07-24T19:28:53.217Z,32.90
2018-07-24T19:31:22.650Z,32.80
2018-07-24T19:33:51.692Z,32.80
2018-07-24T19:36:21.053Z,32.70
2018-07-24T19:38:50.262Z,32.60
2018-07-24T19:41:19.286Z,32.60
2018-07-24T19:43:48.697Z,32.50
2018-07-24T19:46:18.066Z,32.50
2018-07-24T19:48:47.276Z,32.40
2018-07-24T19:51:16.378Z,32.20
2018-07-24T19:53:45.620Z,32.20
2018-07-24T19:56:14.852Z,32.20
2018-07-24T19:58:44.378Z,31.90
2018-07-24T20:01:13.954Z,31.90
2018-07-24T20:03:43.369Z,31.70
2018-07-24T20:06:13.600Z,31.50
2018-07-24T20:08:42.932Z,31.50
2018-07-24T20:11:12.234Z,31.40
2018-07-24T20:13:41.730Z,31.50
2018-07-24T20:16:11.539Z,31.50
2018-07-24T20:18:41.158Z,31.50
2018-07-24T20:21:10.281Z,31.50
2018-07-24T20:23:39.737Z,31.40
2018-07-24T20:26:09.549Z,31.30
2018-07-24T20:28:40.045Z,31.30
2018-07-24T20:31:09.437Z,31.20
2018-07-24T20:33:38.807Z,31.20
2018-07-24T20:36:08.589Z,31.10
2018-07-24T20:38:38.700Z,31.00
2018-07-24T20:41:08.240Z,30.90
2018-07-24T20:43:38.302Z,30.90
2018-07-24T20:46:09.090Z,30.90
2018-07-24T20:48:38.820Z,30.80
2018-07-24T20:51:08.665Z,30.80
2018-07-24T20:53:38.249Z,30.70
2018-07-24T20:56:07.848Z,30.60
2018-07-24T20:58:37.552Z,30.50
2018-07-24T21:01:07.742Z,30.40
2018-07-24T21:03:37.415Z,30.30
2018-07-24T21:06:07.367Z,30.30
2018-07-24T21:08:36.941Z,30.20
2018-07-24T21:11:06.984Z,30.00
2018-07-24T21:13:36.613Z,29.80
2018-07-24T21:16:06.734Z,29.80
2018-07-24T21:18:36.317Z,29.70
2018-07-24T21:21:07.180Z,29.80
2018-07-24T21:23:36.770Z,29.60
2018-07-24T21:26:06.545Z,29.50
2018-07-24T21:28:36.217Z,29.40
2018-07-24T21:31:06.304Z,29.30
2018-07-24T21:33:35.957Z,29.30
2018-07-24T21:36:05.741Z,29.40
2018-07-24T21:38:35.496Z,29.40
2018-07-24T21:41:05.224Z,29.30
2018-07-24T21:43:34.766Z,29.10
2018-07-24T21:46:05.408Z,29.20
2018-07-24T21:48:35.158Z,29.00
2018-07-24T21:51:04.723Z,29.00
2018-07-24T21:53:34.144Z,29.00
2018-07-24T21:56:03.662Z,28.90
2018-07-24T21:58:33.397Z,28.90
2018-07-24T22:01:08.338Z,28.80
2018-07-24T22:03:37.985Z,28.80
2018-07-24T22:06:07.792Z,28.70
2018-07-24T22:08:37.461Z,28.50
2018-07-24T22:11:07.415Z,28.50
2018-07-24T22:13:36.886Z,28.50
2018-07-24T22:16:06.679Z,28.50
2018-07-24T22:18:36.193Z,28.50
2018-07-24T22:21:05.905Z,28.50
2018-07-24T22:23:35.297Z,28.40
2018-07-24T22:26:04.942Z,28.30
2018-07-24T22:28:34.328Z,28.20
2018-07-24T22:31:04.150Z,28.00
2018-07-24T22:33:33.464Z,28.00
2018-07-24T22:36:02.699Z,28.00
2018-07-24T22:38:31.988Z,28.00
2018-07-24T22:41:01.401Z,27.90
2018-07-24T22:43:31.251Z,27.80
2018-07-24T22:46:01.020Z,27.80
2018-07-24T22:48:30.236Z,27.80
2018-07-24T22:50:59.827Z,27.70
2018-07-24T22:53:29.185Z,27.70
2018-07-24T22:55:58.984Z,27.60
2018-07-24T22:58:28.664Z,27.60
2018-07-24T23:00:58.162Z,27.50
2018-07-24T23:03:27.366Z,27.40
2018-07-24T23:05:56.738Z,27.50
2018-07-24T23:08:26.845Z,27.50
2018-07-24T23:10:56.325Z,27.40
2018-07-24T23:13:25.803Z,27.30
2018-07-24T23:15:55.155Z,27.30
2018-07-24T23:18:24.469Z,27.30
2018-07-24T23:20:53.820Z,27.30
2018-07-24T23:23:23.226Z,27.20
2018-07-24T23:25:53.186Z,27.20
2018-07-24T23:28:22.761Z,27.20
2018-07-24T23:30:51.997Z,27.10
2018-07-24T23:33:21.704Z,27.10
2018-07-24T23:35:51.170Z,27.20
2018-07-24T23:38:20.418Z,27.10
2018-07-24T23:40:50.713Z,27.10
2018-07-24T23:43:20.142Z,27.00
2018-07-24T23:45:49.815Z,26.90
2018-07-24T23:48:19.257Z,26.90
2018-07-24T23:50:48.869Z,26.80
2018-07-24T23:53:18.738Z,26.70
2018-07-24T23:55:48.278Z,26.60
2018-07-24T23:58:18.557Z,26.60
